createdAt,value
2018-05-08T00:02:08.028Z,100997
2018-05-08T00:04:36.171Z,101012
2018-05-08T00:07:04.481Z,101000
2018-05-08T00:09:32.631Z,101006
2018-05-08T00:12:00.788Z,100998
2018-05-08T00:14:29.409Z,100990
2018-05-08T00:16:57.642Z,101001
2018-05-08T00:19:25.855Z,100998
2018-05-08T00:21:54.189Z,100990
2018-05-08T00:24:22.549Z,101003
2018-05-08T00:26:50.676Z,100992
2018-05-08T00:29:18.968Z,100993
2018-05-08T00:31:47.106Z,100981
2018-05-08T00:34:15.292Z,100982
2018-05-08T00:36:43.583Z,100985
2018-05-08T00:39:11.944Z,100984
2018-05-08T00:41:40.357Z,100980
2018-05-08T00:44:08.685Z,100983
2018-05-08T00:46:36.983Z,100976
2018-05-08T00:49:05.129Z,100985
2018-05-08T00:51:33.559Z,100982
2018-05-08T00:54:01.886Z,100981
2018-05-08T00:56:30.196Z,100983
2018-05-08T00:58:58.304Z,100980
2018-05-08T01:01:26.445Z,100983
2018-05-08T01:03:54.814Z,100976
2018-05-08T01:06:23.113Z,100985
2018-05-08T01:08:51.447Z,100980
2018-05-08T01:11:19.606Z,100983
2018-05-08T01:13:47.763Z,100984
2018-05-08T01:16:16.085Z,100975
2018-05-08T01:18:44.203Z,100984
2018-05-08T01:21:12.331Z,100981
2018-05-08T01:23:40.457Z,100974
2018-05-08T01:26:08.631Z,100968
2018-05-08T01:28:37.000Z,100963
2018-05-08T01:31:05.178Z,100972
2018-05-08T01:33:33.400Z,100974
2018-05-08T01:36:01.568Z,100968
2018-05-08T01:38:29.719Z,100963
2018-05-08T01:40:57.814Z,100961
2018-05-08T01:43:25.954Z,100942
2018-05-08T01:45:54.384Z,100950
2018-05-08T01:48:22.499Z,100961
2018-05-08T01:50:50.597Z,100960
2018-05-08T01:53:18.691Z,100961
2018-05-08T01:55:46.816Z,100951
2018-05-08T01:58:15.146Z,100947
2018-05-08T02:00:43.265Z,100948
2018-05-08T02:03:11.420Z,100957
2018-05-08T02:05:39.657Z,100954
2018-05-08T02:08:08.050Z,100947
2018-05-08T02:10:36.426Z,100950
2018-05-08T02:13:04.514Z,100934
2018-05-08T02:15:32.745Z,100945
2018-05-08T02:18:00.880Z,100944
2018-05-08T02:20:29.336Z,100931
2018-05-08T02:22:57.462Z,100930
2018-05-08T02:25:25.967Z,100927
2018-05-08T02:27:54.137Z,100933
2018-05-08T02:30:22.474Z,100932
2018-05-08T02:32:50.572Z,100927
2018-05-08T02:35:19.003Z,100926
2018-05-08T02:37:47.127Z,100924
2018-05-08T02:40:15.325Z,100919
2018-05-08T02:42:43.805Z,100926
2018-05-08T02:45:11.923Z,100920
2018-05-08T02:47:40.036Z,100913
2018-05-08T02:50:08.154Z,100925
2018-05-08T02:52:36.311Z,100914
2018-05-08T02:55:04.387Z,100917
2018-05-08T02:57:32.460Z,100918
2018-05-08T03:00:00.536Z,100923
2018-05-08T03:02:28.835Z,100923
2018-05-08T03:04:56.938Z,100925
2018-05-08T03:07:25.024Z,100922
2018-05-08T03:09:53.431Z,100917
2018-05-08T03:12:21.491Z,100910
2018-05-08T03:14:49.857Z,100918
2018-05-08T03:17:18.002Z,100920
2018-05-08T03:19:46.233Z,100927
2018-05-08T03:22:14.371Z,100924
2018-05-08T03:24:42.455Z,100920
2018-05-08T03:27:10.527Z,100926
2018-05-08T03:29:38.704Z,100922
2018-05-08T03:32:06.899Z,100917
2018-05-08T03:34:34.995Z,100924
2018-05-08T03:37:03.127Z,100915
2018-05-08T03:39:31.521Z,100925
2018-05-08T03:41:59.669Z,100913
2018-05-08T03:44:27.931Z,100917
2018-05-08T03:46:56.350Z,100916
2018-05-08T03:49:24.868Z,100927
2018-05-08T03:51:53.499Z,100912
2018-05-08T03:54:22.081Z,100921
2018-05-08T03:56:50.757Z,100919
2018-05-08T03:59:19.537Z,100921
2018-05-08T04:01:59.632Z,100917
2018-05-08T04:04:39.698Z,100915
2018-05-08T04:07:22.217Z,100917
2018-05-08T04:09:51.014Z,100908
2018-05-08T04:12:19.184Z,100908
2018-05-08T04:14:47.658Z,100916
2018-05-08T04:17:16.429Z,100913
2018-05-08T04:19:45.003Z,100917
2018-05-08T04:22:13.654Z,100909
2018-05-08T04:24:42.164Z,100901
2018-05-08T04:27:10.774Z,100903
2018-05-08T04:29:39.349Z,100897
2018-05-08T04:32:07.787Z,100891
2018-05-08T04:34:36.470Z,100902
2018-05-08T04:37:04.748Z,100891
2018-05-08T04:39:33.130Z,100899
2018-05-08T04:42:01.494Z,100896
2018-05-08T04:44:31.844Z,100888
2018-05-08T04:47:00.942Z,100899
2018-05-08T04:49:29.326Z,100887
2018-05-08T04:51:58.486Z,100889
2018-05-08T04:54:26.828Z,100882
2018-05-08T04:56:59.367Z,100874
2018-05-08T04:59:28.568Z,100885
2018-05-08T05:01:57.078Z,100880
2018-05-08T05:04:25.234Z,100877
2018-05-08T05:06:54.335Z,100877
2018-05-08T05:09:23.210Z,100870
2018-05-08T05:11:51.766Z,100871
2018-05-08T05:14:20.201Z,100875
2018-05-08T05:16:48.611Z,100870
2018-05-08T05:19:17.492Z,100863
2018-05-08T05:21:46.111Z,100871
2018-05-08T05:24:14.324Z,100857
2018-05-08T05:26:42.705Z,100860
2018-05-08T05:29:11.319Z,100863
2018-05-08T05:31:39.708Z,100853
2018-05-08T05:34:08.070Z,100862
2018-05-08T05:36:36.702Z,100856
2018-05-08T05:39:05.062Z,100861
2018-05-08T05:41:33.436Z,100860
2018-05-08T05:44:01.709Z,100853
2018-05-08T05:46:29.984Z,100854
2018-05-08T05:48:58.664Z,100849
2018-05-08T05:51:26.857Z,100856
2018-05-08T05:53:55.084Z,100843
2018-05-08T05:56:23.447Z,100851
2018-05-08T05:58:51.667Z,100838
2018-05-08T06:01:20.016Z,100851
2018-05-08T06:03:48.628Z,100834
2018-05-08T06:06:17.193Z,100843
2018-05-08T06:08:45.975Z,100835
2018-05-08T06:11:14.257Z,100846
2018-05-08T06:13:42.709Z,100837
2018-05-08T06:16:11.107Z,100849
2018-05-08T06:18:39.590Z,100833
2018-05-08T06:21:08.141Z,100835
2018-05-08T06:23:36.737Z,100834
2018-05-08T06:26:05.012Z,100834
2018-05-08T06:28:33.629Z,100834
2018-05-08T06:31:01.694Z,100828
2018-05-08T06:33:31.576Z,100824
2018-05-08T06:36:00.219Z,100828
2018-05-08T06:38:28.714Z,100824
2018-05-08T06:40:57.056Z,100822
2018-05-08T06:43:25.273Z,100813
2018-05-08T06:45:53.496Z,100819
2018-05-08T06:48:22.008Z,100822
2018-05-08T06:50:50.508Z,100817
2018-05-08T06:53:18.598Z,100819
2018-05-08T06:55:46.728Z,100817
2018-05-08T06:58:14.945Z,100822
2018-05-08T07:00:43.251Z,100818
2018-05-08T07:03:12.104Z,100816
2018-05-08T07:05:40.353Z,100815
2018-05-08T07:08:08.508Z,100810
2018-05-08T07:10:36.831Z,100817
2018-05-08T07:13:05.487Z,100815
2018-05-08T07:15:33.680Z,100806
2018-05-08T07:18:01.795Z,100812
2018-05-08T07:20:30.087Z,100815
2018-05-08T07:22:58.570Z,100817
2018-05-08T07:25:27.022Z,100808
2018-05-08T07:27:55.354Z,100812
2018-05-08T07:30:23.517Z,100802
2018-05-08T07:32:51.649Z,100805
2018-05-08T07:35:19.964Z,100802
2018-05-08T07:37:48.253Z,100812
2018-05-08T07:40:16.401Z,100803
2018-05-08T07:42:44.540Z,100814
2018-05-08T07:45:12.754Z,100813
2018-05-08T07:47:40.926Z,100808
2018-05-08T07:50:09.205Z,100808
2018-05-08T07:52:37.564Z,100808
2018-05-08T07:55:05.803Z,100805
2018-05-08T07:57:34.216Z,100798
2018-05-08T08:00:02.397Z,100805
2018-05-08T08:02:31.072Z,100804
2018-05-08T08:04:59.286Z,100809
2018-05-08T08:07:28.416Z,100805
2018-05-08T08:09:56.457Z,100815
2018-05-08T08:12:24.675Z,100809
2018-05-08T08:14:52.931Z,100817
2018-05-08T08:17:21.060Z,100813
2018-05-08T08:19:49.176Z,100805
2018-05-08T08:22:17.339Z,100806
2018-05-08T08:24:45.582Z,100798
2018-05-08T08:27:14.004Z,100804
2018-05-08T08:29:42.292Z,100798
2018-05-08T08:32:10.525Z,100800
2018-05-08T08:34:38.642Z,100788
2018-05-08T08:37:06.811Z,100794
2018-05-08T08:39:35.042Z,100792
2018-05-08T08:42:03.442Z,100789
2018-05-08T08:44:31.607Z,100785
2018-05-08T08:46:59.699Z,100783
2018-05-08T08:49:28.011Z,100777
2018-05-08T08:51:56.095Z,100789
2018-05-08T08:54:24.338Z,100785
2018-05-08T08:56:52.592Z,100779
2018-05-08T08:59:20.814Z,100793
2018-05-08T09:01:49.015Z,100775
2018-05-08T09:04:17.427Z,100784
2018-05-08T09:06:45.588Z,100774
2018-05-08T09:09:13.697Z,100772
2018-05-08T09:11:41.861Z,100763
2018-05-08T09:14:10.060Z,100758
2018-05-08T09:16:38.478Z,100764
2018-05-08T09:19:06.587Z,100770
2018-05-08T09:21:34.706Z,100759
2018-05-08T09:24:02.954Z,100766
2018-05-08T09:26:31.283Z,100758
2018-05-08T09:28:59.376Z,100763
2018-05-08T09:31:27.655Z,100759
2018-05-08T09:33:55.953Z,100752
2018-05-08T09:36:24.101Z,100747
2018-05-08T09:38:52.222Z,100751
2018-05-08T09:41:20.405Z,100746
2018-05-08T09:43:48.676Z,100750
2018-05-08T09:46:16.890Z,100736
2018-05-08T09:48:45.306Z,100738
2018-05-08T09:51:13.620Z,100731
2018-05-08T09:53:41.825Z,100725
2018-05-08T09:56:10.008Z,100723
2018-05-08T09:58:38.310Z,100724
2018-05-08T10:01:06.641Z,100714
2018-05-08T10:03:35.078Z,100724
2018-05-08T10:06:03.308Z,100727
2018-05-08T10:08:31.529Z,100715
2018-05-08T10:10:59.827Z,100706
2018-05-08T10:13:28.078Z,100697
2018-05-08T10:15:56.189Z,100709
2018-05-08T10:18:24.518Z,100703
2018-05-08T10:20:52.921Z,100703
2018-05-08T10:23:21.031Z,100681
2018-05-08T10:25:49.529Z,100689
2018-05-08T10:28:17.661Z,100694
2018-05-08T10:30:45.966Z,100691
2018-05-08T10:33:14.314Z,100704
2018-05-08T10:35:42.576Z,100686
2018-05-08T10:38:10.780Z,100677
2018-05-08T10:40:38.888Z,100678
2018-05-08T10:43:07.009Z,100676
2018-05-08T10:45:35.174Z,100674
2018-05-08T10:48:03.493Z,100659
2018-05-08T10:50:31.692Z,100670
2018-05-08T10:52:59.867Z,100673
2018-05-08T10:55:28.049Z,100662
2018-05-08T10:57:56.157Z,100655
2018-05-08T11:00:24.292Z,100662
2018-05-08T11:02:52.550Z,100650
2018-05-08T11:05:20.726Z,100651
2018-05-08T11:07:49.049Z,100647
2018-05-08T11:10:17.153Z,100636
2018-05-08T11:12:45.497Z,100648
2018-05-08T11:15:13.585Z,100632
2018-05-08T11:17:41.674Z,100640
2018-05-08T11:20:09.931Z,100635
2018-05-08T11:22:38.062Z,100628
2018-05-08T11:25:06.179Z,100635
2018-05-08T11:27:34.500Z,100634
2018-05-08T11:30:02.688Z,100623
2018-05-08T11:32:30.852Z,100632
2018-05-08T11:34:58.997Z,100624
2018-05-08T11:37:27.113Z,100621
2018-05-08T11:39:55.214Z,100622
2018-05-08T11:42:23.411Z,100619
2018-05-08T11:44:51.556Z,100596
2018-05-08T11:47:19.734Z,100604
2018-05-08T11:49:47.980Z,100613
2018-05-08T11:52:16.063Z,100607
2018-05-08T11:54:44.243Z,100613
2018-05-08T11:57:12.394Z,100599
2018-05-08T11:59:40.630Z,100605
2018-05-08T12:02:08.748Z,100602
2018-05-08T12:04:36.886Z,100600
2018-05-08T12:07:05.051Z,100595
2018-05-08T12:09:33.254Z,100593
2018-05-08T12:12:01.422Z,100586
2018-05-08T12:14:29.595Z,100588
2018-05-08T12:16:57.779Z,100591
2018-05-08T12:19:26.019Z,100582
2018-05-08T12:21:54.339Z,100576
2018-05-08T12:24:22.593Z,100581
2018-05-08T12:26:51.814Z,100577
2018-05-08T12:29:20.008Z,100563
2018-05-08T12:31:48.277Z,100565
2018-05-08T12:34:16.425Z,100562
2018-05-08T12:36:44.683Z,100552
2018-05-08T12:39:12.863Z,100558
2018-05-08T12:41:41.208Z,100553
2018-05-08T12:44:09.493Z,100549
2018-05-08T12:46:37.913Z,100549
2018-05-08T12:49:06.106Z,100534
2018-05-08T12:51:34.361Z,100540
2018-05-08T12:54:02.581Z,100540
2018-05-08T12:56:30.968Z,100528
2018-05-08T12:58:59.200Z,100538
2018-05-08T13:01:27.543Z,100528
2018-05-08T13:03:55.767Z,100530
2018-05-08T13:06:23.933Z,100526
2018-05-08T13:08:52.196Z,100520
2018-05-08T13:11:20.328Z,100518
2018-05-08T13:13:48.614Z,100518
2018-05-08T13:16:16.822Z,100519
2018-05-08T13:18:45.166Z,100517
2018-05-08T13:21:13.564Z,100519
2018-05-08T13:23:42.751Z,100519
2018-05-08T13:26:11.068Z,100510
2018-05-08T13:28:39.557Z,100500
2018-05-08T13:31:08.027Z,100509
2018-05-08T13:33:36.333Z,100506
2018-05-08T13:36:04.526Z,100510
2018-05-08T13:38:32.731Z,100502
2018-05-08T13:41:00.934Z,100493
2018-05-08T13:43:29.128Z,100499
2018-05-08T13:45:57.574Z,100483
2018-05-08T13:48:25.859Z,100489
2018-05-08T13:50:54.128Z,100462
2018-05-08T13:53:22.700Z,100483
2018-05-08T13:55:51.181Z,100476
2018-05-08T13:58:19.520Z,100481
2018-05-08T14:00:47.787Z,100471
2018-05-08T14:03:16.273Z,100475
2018-05-08T14:05:44.521Z,100469
2018-05-08T14:08:12.739Z,100467
2018-05-08T14:10:41.325Z,100466
2018-05-08T14:13:09.630Z,100464
2018-05-08T14:15:37.819Z,100463
2018-05-08T14:18:06.469Z,100453
2018-05-08T14:20:34.863Z,100456
2018-05-08T14:23:03.132Z,100444
2018-05-08T14:25:31.450Z,100443
2018-05-08T14:27:59.674Z,100446
2018-05-08T14:30:27.766Z,100440
2018-05-08T14:32:56.147Z,100436
2018-05-08T14:35:24.394Z,100420
2018-05-08T14:37:52.789Z,100430
2018-05-08T14:40:21.151Z,100417
2018-05-08T14:42:49.426Z,100422
2018-05-08T14:45:17.660Z,100427
2018-05-08T14:47:46.300Z,100412
2018-05-08T14:50:14.543Z,100416
2018-05-08T14:52:42.765Z,100417
2018-05-08T14:55:11.013Z,100415
2018-05-08T14:57:39.211Z,100418
2018-05-08T15:00:07.540Z,100412
2018-05-08T15:02:35.744Z,100401
2018-05-08T15:05:03.894Z,100407
2018-05-08T15:07:32.019Z,100407
2018-05-08T15:10:00.218Z,100419
2018-05-08T15:12:28.464Z,100396
2018-05-08T15:14:56.617Z,100399
2018-05-08T15:17:24.826Z,100401
2018-05-08T15:19:53.002Z,100397
2018-05-08T15:22:21.202Z,100396
2018-05-08T15:24:49.371Z,100393
2018-05-08T15:27:17.903Z,100406
2018-05-08T15:29:46.139Z,100394
2018-05-08T15:32:14.271Z,100393
2018-05-08T15:34:42.422Z,100392
2018-05-08T15:37:10.683Z,100388
2018-05-08T15:39:38.765Z,100378
2018-05-08T15:42:06.928Z,100380
2018-05-08T15:44:35.257Z,100374
2018-05-08T15:47:03.547Z,100363
2018-05-08T15:49:31.668Z,100375
2018-05-08T15:51:59.798Z,100379
2018-05-08T15:54:27.981Z,100359
2018-05-08T15:56:56.166Z,100368
2018-05-08T15:59:24.470Z,100361
2018-05-08T16:01:52.846Z,100371
2018-05-08T16:04:21.192Z,100363
2018-05-08T16:06:49.647Z,100354
2018-05-08T16:09:18.134Z,100347
2018-05-08T16:11:46.288Z,100357
2018-05-08T16:14:14.473Z,100347
2018-05-08T16:16:42.723Z,100350
2018-05-08T16:19:11.035Z,100347
2018-05-08T16:21:39.250Z,100345
2018-05-08T16:24:07.684Z,100339
2018-05-08T16:26:36.038Z,100335
2018-05-08T16:29:04.423Z,100337
2018-05-08T16:31:32.780Z,100341
2018-05-08T16:34:01.158Z,100342
2018-05-08T16:36:29.458Z,100339
2018-05-08T16:38:57.831Z,100331
2018-05-08T16:41:26.197Z,100335
2018-05-08T16:43:54.467Z,100335
2018-05-08T16:46:22.857Z,100335
2018-05-08T16:48:51.483Z,100334
2018-05-08T16:51:19.841Z,100333
2018-05-08T16:53:48.114Z,100332
2018-05-08T16:56:16.449Z,100326
2018-05-08T16:58:44.733Z,100325
2018-05-08T17:01:13.170Z,100332
2018-05-08T17:03:41.486Z,100333
2018-05-08T17:06:09.848Z,100317
2018-05-08T17:08:38.285Z,100331
2018-05-08T17:11:06.628Z,100321
2018-05-08T17:13:34.861Z,100321
2018-05-08T17:16:03.185Z,100337
2018-05-08T17:18:31.554Z,100323
2018-05-08T17:21:00.269Z,100320
2018-05-08T17:23:28.908Z,100324
2018-05-08T17:25:57.240Z,100325
2018-05-08T17:28:26.249Z,100316
2018-05-08T17:30:54.654Z,100314
2018-05-08T17:33:23.108Z,100312
2018-05-08T17:35:51.525Z,100316
2018-05-08T17:38:20.077Z,100319
2018-05-08T17:40:48.344Z,100303
2018-05-08T17:43:16.564Z,100312
2018-05-08T17:45:44.877Z,100313
2018-05-08T17:48:13.416Z,100311
2018-05-08T17:50:41.741Z,100318
2018-05-08T17:53:10.504Z,100307
2018-05-08T17:55:39.035Z,100318
2018-05-08T17:58:07.551Z,100310
2018-05-08T18:00:35.938Z,100317
2018-05-08T18:03:04.178Z,100318
2018-05-08T18:05:32.692Z,100309
2018-05-08T18:08:01.472Z,100312
2018-05-08T18:10:30.433Z,100309
2018-05-08T18:12:59.127Z,100313
2018-05-08T18:15:27.574Z,100310
2018-05-08T18:17:55.781Z,100304
2018-05-08T18:20:24.348Z,100303
2018-05-08T18:22:52.808Z,100301
2018-05-08T18:25:21.213Z,100290
2018-05-08T18:27:49.500Z,100296
2018-05-08T18:30:18.093Z,100295
2018-05-08T18:32:46.497Z,100296
2018-05-08T18:35:14.727Z,100300
2018-05-08T18:37:42.952Z,100295
2018-05-08T18:40:11.598Z,100296
2018-05-08T18:42:39.803Z,100296
2018-05-08T18:45:08.003Z,100304
2018-05-08T18:47:36.303Z,100306
2018-05-08T18:50:08.578Z,100309
2018-05-08T18:52:41.110Z,100303
2018-05-08T18:55:12.548Z,100313
2018-05-08T18:57:43.953Z,100306
2018-05-08T19:00:18.025Z,100311
2018-05-08T19:02:46.178Z,100314
2018-05-08T19:05:14.276Z,100303
2018-05-08T19:07:42.462Z,100311
2018-05-08T19:10:10.589Z,100314
2018-05-08T19:12:38.688Z,100308
2018-05-08T19:15:12.332Z,100318
2018-05-08T19:17:40.419Z,100332
2018-05-08T19:20:08.483Z,100319
2018-05-08T19:22:36.716Z,100324
2018-05-08T19:25:04.809Z,100323
2018-05-08T19:27:32.941Z,100338
2018-05-08T19:30:06.763Z,100336
2018-05-08T19:32:34.877Z,100326
2018-05-08T19:35:08.721Z,100334
2018-05-08T19:37:42.755Z,100321
2018-05-08T19:40:10.986Z,100341
2018-05-08T19:42:39.598Z,100333
2018-05-08T19:45:07.712Z,100330
2018-05-08T19:47:35.892Z,100335
2018-05-08T19:50:04.318Z,100331
2018-05-08T19:52:32.447Z,100323
2018-05-08T19:55:00.795Z,100336
2018-05-08T19:57:28.966Z,100333
2018-05-08T19:59:57.101Z,100322
2018-05-08T20:02:25.260Z,100330
2018-05-08T20:04:54.057Z,100309
2018-05-08T20:07:23.927Z,100323
2018-05-08T20:10:18.214Z,100330
2018-05-08T20:12:47.560Z,100321
2018-05-08T20:15:15.807Z,100323
2018-05-08T20:17:45.196Z,100314
2018-05-08T20:20:13.571Z,100320
2018-05-08T20:22:42.572Z,100319
2018-05-08T20:25:24.715Z,100314
2018-05-08T20:27:53.180Z,100316
2018-05-08T20:30:21.313Z,100317
2018-05-08T20:32:56.263Z,100322
2018-05-08T20:35:24.401Z,100324
2018-05-08T20:37:52.612Z,100325
2018-05-08T20:40:21.116Z,100326
2018-05-08T20:42:49.407Z,100324
2018-05-08T20:45:18.229Z,100333
2018-05-08T20:47:47.130Z,100331
2018-05-08T20:50:15.862Z,100335
2018-05-08T20:52:44.043Z,100335
2018-05-08T20:55:12.441Z,100335
2018-05-08T20:57:40.622Z,100336
2018-05-08T21:00:09.565Z,100342
2018-05-08T21:02:37.784Z,100315
2018-05-08T21:05:06.140Z,100335
2018-05-08T21:07:34.541Z,100343
2018-05-08T21:10:02.993Z,100345
2018-05-08T21:12:31.370Z,100337
2018-05-08T21:14:59.824Z,100343
2018-05-08T21:17:28.150Z,100353
2018-05-08T21:19:56.408Z,100343
2018-05-08T21:22:24.852Z,100337
2018-05-08T21:24:53.285Z,100343
2018-05-08T21:27:21.762Z,100333
2018-05-08T21:29:55.983Z,100337
2018-05-08T21:32:24.238Z,100345
2018-05-08T21:34:52.443Z,100337
2018-05-08T21:37:20.629Z,100351
2018-05-08T21:39:49.034Z,100351
2018-05-08T21:42:17.345Z,100345
2018-05-08T21:44:45.947Z,100343
2018-05-08T21:47:14.098Z,100349
2018-05-08T21:49:42.478Z,100337
2018-05-08T21:52:11.074Z,100334
2018-05-08T21:54:39.546Z,100334
2018-05-08T21:57:07.702Z,100335
2018-05-08T21:59:35.947Z,100331
2018-05-08T22:02:04.306Z,100333
2018-05-08T22:10:14.648Z,100334
2018-05-08T22:12:42.736Z,100336
2018-05-08T22:15:11.111Z,100335
2018-05-08T22:17:39.237Z,100334
2018-05-08T22:20:07.359Z,100335
2018-05-08T22:22:35.467Z,100335
2018-05-08T22:25:03.808Z,100339
2018-05-08T22:27:32.104Z,100335
2018-05-08T22:30:00.251Z,100337
2018-05-08T22:32:28.353Z,100334
2018-05-08T22:34:56.471Z,100325
2018-05-08T22:37:25.121Z,100335
2018-05-08T22:39:53.240Z,100318
2018-05-08T22:42:21.350Z,100322
2018-05-08T22:44:49.489Z,100323
2018-05-08T22:47:17.969Z,100337
2018-05-08T22:49:46.099Z,100322
2018-05-08T22:52:14.266Z,100318
2018-05-08T22:54:42.371Z,100316
2018-05-08T22:57:10.748Z,100312
2018-05-08T22:59:38.913Z,100319
2018-05-08T23:02:07.177Z,100318
2018-05-08T23:04:35.404Z,100310
2018-05-08T23:07:03.539Z,100313
2018-05-08T23:09:31.641Z,100309
2018-05-08T23:11:59.752Z,100303
2018-05-08T23:14:27.861Z,100322
2018-05-08T23:16:56.025Z,100307
2018-05-08T23:19:24.098Z,100304
2018-05-08T23:21:52.273Z,100297
2018-05-08T23:24:20.667Z,100307
2018-05-08T23:26:48.947Z,100302
2018-05-08T23:29:17.352Z,100295
2018-05-08T23:31:46.315Z,100299
2018-05-08T23:34:14.569Z,100300
2018-05-08T23:36:42.978Z,100300
2018-05-08T23:39:11.101Z,100289
2018-05-08T23:41:39.543Z,100293
2018-05-08T23:44:07.891Z,100292
2018-05-08T23:46:36.074Z,100301
2018-05-08T23:49:04.195Z,100297
2018-05-08T23:51:32.288Z,100293
2018-05-08T23:54:00.421Z,100293
2018-05-08T23:56:28.803Z,100287
2018-05-08T23:58:56.907Z,100289
